createdAt,value
2017-08-05T00:00:52.926Z,14.8
2017-08-05T00:02:00.406Z,14.8
2017-08-05T00:03:07.889Z,14.9
2017-08-05T00:04:15.379Z,14.8
2017-08-05T00:05:22.858Z,14.8
2017-08-05T00:06:30.636Z,14.8
2017-08-05T00:07:38.115Z,14.8
2017-08-05T00:08:45.612Z,14.7
2017-08-05T00:09:53.097Z,14.7
2017-08-05T00:11:00.580Z,14.7
2017-08-05T00:12:08.365Z,14.7
2017-08-05T00:13:15.843Z,14.6
2017-08-05T00:14:23.324Z,14.6
2017-08-05T00:15:30.806Z,14.6
2017-08-05T00:16:38.287Z,14.6
2017-08-05T00:17:46.067Z,14.6
2017-08-05T00:18:53.221Z,14.6
2017-08-05T00:20:00.699Z,14.6
2017-08-05T00:21:08.180Z,14.6
2017-08-05T00:22:15.658Z,14.5
2017-08-05T00:23:23.387Z,14.5
2017-08-05T00:24:30.870Z,14.5
2017-08-05T00:25:38.371Z,14.5
2017-08-05T00:26:45.517Z,14.5
2017-08-05T00:27:53.026Z,14.5
2017-08-05T00:29:00.803Z,14.5
2017-08-05T00:30:08.274Z,14.5
2017-08-05T00:31:15.759Z,14.5
2017-08-05T00:32:23.241Z,14.4
2017-08-05T00:33:30.716Z,14.4
2017-08-05T00:34:38.167Z,14.4
2017-08-05T00:35:45.648Z,14.4
2017-08-05T00:36:53.125Z,14.4
2017-08-05T00:38:00.605Z,14.4
2017-08-05T00:39:08.079Z,14.4
2017-08-05T00:40:15.917Z,14.4
2017-08-05T00:41:23.071Z,14.4
2017-08-05T00:42:30.228Z,14.4
2017-08-05T00:43:37.706Z,14.3
2017-08-05T00:44:45.206Z,14.4
2017-08-05T00:45:52.988Z,14.3
2017-08-05T00:47:00.137Z,14.3
2017-08-05T00:48:07.618Z,14.3
2017-08-05T00:49:15.101Z,14.3
2017-08-05T00:50:22.250Z,14.2
2017-08-05T00:51:30.027Z,14.2
2017-08-05T00:52:37.520Z,14.2
2017-08-05T00:53:45.001Z,14.2
2017-08-05T00:54:52.486Z,14.2
2017-08-05T00:55:59.306Z,14.2
2017-08-05T00:57:07.043Z,14.2
2017-08-05T00:58:14.526Z,14.2
2017-08-05T00:59:22.010Z,14.2
2017-08-05T01:00:29.489Z,14.2
2017-08-05T01:01:36.642Z,14.2
2017-08-05T01:02:44.348Z,14.2
2017-08-05T01:03:51.521Z,14.2
2017-08-05T01:04:59.000Z,14.2
2017-08-05T01:06:06.163Z,14.1
2017-08-05T01:07:13.649Z,14.1
2017-08-05T01:08:21.432Z,14.1
2017-08-05T01:09:28.910Z,14.1
2017-08-05T01:10:36.060Z,14
2017-08-05T01:11:43.208Z,14
2017-08-05T01:12:50.360Z,14
2017-08-05T01:13:58.147Z,14
2017-08-05T01:15:05.622Z,14
2017-08-05T01:16:12.766Z,14
2017-08-05T01:17:20.251Z,14
2017-08-05T01:18:27.399Z,14
2017-08-05T01:19:34.854Z,13.9
2017-08-05T01:20:42.332Z,13.9
2017-08-05T01:21:49.810Z,13.9
2017-08-05T01:22:57.294Z,13.9
2017-08-05T01:24:04.448Z,13.9
2017-08-05T01:25:12.176Z,13.9
2017-08-05T01:26:19.652Z,13.9
2017-08-05T01:27:27.134Z,13.9
2017-08-05T01:28:34.614Z,13.9
2017-08-05T01:29:42.095Z,13.9
2017-08-05T01:30:49.866Z,13.9
2017-08-05T01:31:57.347Z,13.9
2017-08-05T01:33:04.822Z,13.8
2017-08-05T01:34:11.966Z,13.8
2017-08-05T01:35:19.438Z,13.8
2017-08-05T01:36:27.217Z,13.8
2017-08-05T01:37:34.705Z,13.8
2017-08-05T01:38:42.185Z,13.8
2017-08-05T01:39:49.351Z,13.8
2017-08-05T01:40:56.827Z,13.8
2017-08-05T01:42:04.621Z,13.8
2017-08-05T01:43:12.097Z,13.7
2017-08-05T01:44:19.588Z,13.8
2017-08-05T01:45:27.068Z,13.8
2017-08-05T01:46:34.552Z,13.7
2017-08-05T01:47:41.951Z,13.7
2017-08-05T01:48:49.098Z,13.7
2017-08-05T01:49:56.582Z,13.7
2017-08-05T01:51:04.059Z,13.7
2017-08-05T01:52:11.536Z,13.7
2017-08-05T01:53:18.989Z,13.7
2017-08-05T01:54:26.475Z,13.6
2017-08-05T01:55:33.618Z,13.6
2017-08-05T01:56:41.107Z,13.6
2017-08-05T01:57:48.585Z,13.6
2017-08-05T01:58:56.410Z,13.6
2017-08-05T02:00:03.903Z,13.5
2017-08-05T02:01:11.394Z,13.5
2017-08-05T02:02:18.872Z,13.5
2017-08-05T02:03:26.355Z,13.5
2017-08-05T02:04:34.135Z,13.5
2017-08-05T02:05:41.616Z,13.5
2017-08-05T02:06:48.769Z,13.5
2017-08-05T02:07:56.456Z,13.5
2017-08-05T02:09:03.621Z,13.5
2017-08-05T02:10:11.019Z,13.5
2017-08-05T02:11:18.501Z,13.5
2017-08-05T02:12:25.974Z,13.5
2017-08-05T02:13:33.458Z,13.5
2017-08-05T02:14:40.936Z,13.5
2017-08-05T02:15:48.721Z,13.5
2017-08-05T02:16:56.202Z,13.5
2017-08-05T02:18:03.683Z,13.5
2017-08-05T02:19:10.826Z,13.4
2017-08-05T02:20:17.990Z,13.4
2017-08-05T02:21:25.773Z,13.4
2017-08-05T02:22:33.259Z,13.4
2017-08-05T02:23:40.073Z,13.4
2017-08-05T02:24:47.225Z,13.4
2017-08-05T02:25:54.709Z,13.4
2017-08-05T02:27:02.488Z,13.4
2017-08-05T02:28:09.970Z,13.4
2017-08-05T02:29:17.443Z,13.4
2017-08-05T02:30:24.930Z,13.4
2017-08-05T02:31:32.405Z,13.3
2017-08-05T02:32:40.189Z,13.3
2017-08-05T02:33:47.671Z,13.3
2017-08-05T02:34:55.153Z,13.3
2017-08-05T02:36:02.649Z,13.3
2017-08-05T02:37:09.803Z,13.3
2017-08-05T02:38:17.253Z,13.2
2017-08-05T02:39:24.755Z,13.2
2017-08-05T02:40:32.384Z,13.2
2017-08-05T02:41:39.548Z,13.2
2017-08-05T02:42:47.024Z,13.3
2017-08-05T02:43:54.818Z,13.2
2017-08-05T02:45:02.296Z,13.2
2017-08-05T02:46:09.769Z,13.2
2017-08-05T02:47:16.925Z,13.2
2017-08-05T02:48:24.074Z,13.2
2017-08-05T02:49:31.851Z,13.2
2017-08-05T02:50:39.333Z,13.2
2017-08-05T02:51:46.481Z,13.2
2017-08-05T02:52:53.647Z,13.2
2017-08-05T02:54:01.124Z,13.2
2017-08-05T02:55:08.902Z,13.1
2017-08-05T02:56:16.614Z,13.1
2017-08-05T02:57:24.094Z,13.1
2017-08-05T02:58:31.816Z,13.2
2017-08-05T02:59:39.300Z,13.1
2017-08-05T03:00:47.086Z,13.2
2017-08-05T03:01:54.241Z,13.1
2017-08-05T03:03:01.396Z,13.1
2017-08-05T03:04:08.878Z,13.1
2017-08-05T03:05:16.025Z,13.1
2017-08-05T03:06:23.478Z,13
2017-08-05T03:07:30.962Z,13.1
2017-08-05T03:08:38.109Z,13.1
2017-08-05T03:09:45.591Z,13.1
2017-08-05T03:10:53.078Z,13.1
2017-08-05T03:12:00.899Z,13.1
2017-08-05T03:13:08.054Z,13.1
2017-08-05T03:14:15.541Z,13.1
2017-08-05T03:15:23.026Z,13.2
2017-08-05T03:16:30.499Z,13.2
2017-08-05T03:17:38.301Z,13.2
2017-08-05T03:18:45.777Z,13.2
2017-08-05T03:19:53.294Z,13.2
2017-08-05T03:21:00.766Z,13.1
2017-08-05T03:22:07.922Z,13.2
2017-08-05T03:23:15.698Z,13.2
2017-08-05T03:24:23.181Z,13.2
2017-08-05T03:25:30.340Z,13.2
2017-08-05T03:26:37.823Z,13.2
2017-08-05T03:27:45.309Z,13.2
2017-08-05T03:28:53.099Z,13.2
2017-08-05T03:30:01.122Z,13.2
2017-08-05T03:31:08.613Z,13.1
2017-08-05T03:32:16.091Z,13.1
2017-08-05T03:33:23.759Z,13.2
2017-08-05T03:34:31.761Z,13.2
2017-08-05T03:35:39.254Z,13.1
2017-08-05T03:36:46.748Z,13.1
2017-08-05T03:37:54.246Z,13.2
2017-08-05T03:39:01.739Z,13.2
2017-08-05T03:40:09.543Z,13.2
2017-08-05T03:41:16.693Z,13.2
2017-08-05T03:42:24.170Z,13.2
2017-08-05T03:43:31.315Z,13.2
2017-08-05T03:44:38.464Z,13.2
2017-08-05T03:45:45.949Z,13.2
2017-08-05T03:46:53.428Z,13.2
2017-08-05T03:48:00.910Z,13.3
2017-08-05T03:49:08.710Z,13.2
2017-08-05T03:50:15.863Z,13.2
2017-08-05T03:51:23.645Z,13.2
2017-08-05T03:52:31.120Z,13.2
2017-08-05T03:53:38.833Z,13.2
2017-08-05T03:54:46.306Z,13.3
2017-08-05T03:55:54.023Z,13.3
2017-08-05T03:57:01.796Z,13.3
2017-08-05T03:58:09.275Z,13.3
2017-08-05T03:59:16.755Z,13.4
2017-08-05T04:00:23.901Z,13.4
2017-08-05T04:01:31.378Z,13.3
2017-08-05T04:02:39.153Z,13.4
2017-08-05T04:03:46.633Z,13.4
2017-08-05T04:04:54.107Z,13.4
2017-08-05T04:06:01.593Z,13.4
2017-08-05T04:07:09.068Z,13.4
2017-08-05T04:08:16.860Z,13.5
2017-08-05T04:09:24.341Z,13.5
2017-08-05T04:10:31.855Z,13.5
2017-08-05T04:11:39.333Z,13.5
2017-08-05T04:12:46.504Z,13.6
2017-08-05T04:13:53.944Z,13.6
2017-08-05T04:15:01.426Z,13.6
2017-08-05T04:16:08.906Z,13.7
2017-08-05T04:17:16.382Z,13.8
2017-08-05T04:18:23.527Z,13.8
2017-08-05T04:19:30.980Z,13.8
2017-08-05T04:20:38.451Z,13.8
2017-08-05T04:21:45.603Z,13.8
2017-08-05T04:22:52.746Z,13.8
2017-08-05T04:24:00.220Z,13.8
2017-08-05T04:25:07.998Z,13.9
2017-08-05T04:26:15.167Z,13.9
2017-08-05T04:27:22.645Z,13.9
2017-08-05T04:28:30.125Z,14
2017-08-05T04:29:37.616Z,14
2017-08-05T04:30:45.076Z,14
2017-08-05T04:31:52.551Z,14
2017-08-05T04:33:01.271Z,14
2017-08-05T04:34:08.753Z,14.1
2017-08-05T04:35:16.231Z,14.1
2017-08-05T04:36:24.004Z,14.2
2017-08-05T04:37:31.482Z,14.3
2017-08-05T04:38:38.630Z,14.3
2017-08-05T04:39:46.107Z,14.3
2017-08-05T04:40:53.263Z,14.3
2017-08-05T04:42:00.737Z,14.3
2017-08-05T04:43:08.223Z,14.3
2017-08-05T04:44:15.705Z,14.3
2017-08-05T04:45:23.158Z,14.4
2017-08-05T04:46:30.656Z,14.4
2017-08-05T04:47:38.138Z,14.4
2017-08-05T04:48:45.282Z,14.5
2017-08-05T04:49:52.095Z,14.5
2017-08-05T04:50:59.956Z,14.5
2017-08-05T04:52:07.435Z,14.6
2017-08-05T04:53:14.934Z,14.6
2017-08-05T04:54:22.423Z,14.6
2017-08-05T04:55:29.906Z,14.6
2017-08-05T04:56:37.695Z,14.7
2017-08-05T04:57:45.175Z,14.7
2017-08-05T04:58:52.657Z,14.7
2017-08-05T05:00:00.145Z,14.8
2017-08-05T05:01:07.626Z,14.7
2017-08-05T05:02:15.106Z,14.7
2017-08-05T05:03:22.249Z,14.7
2017-08-05T05:04:29.729Z,14.8
2017-08-05T05:05:37.217Z,14.8
2017-08-05T05:06:44.366Z,14.9
2017-08-05T05:07:51.822Z,15
2017-08-05T05:08:58.973Z,15.1
2017-08-05T05:10:06.421Z,15.2
2017-08-05T05:11:14.092Z,15.2
2017-08-05T05:12:21.576Z,15.3
2017-08-05T05:13:29.028Z,15.3
2017-08-05T05:14:36.511Z,15.4
2017-08-05T05:15:43.656Z,15.4
2017-08-05T05:16:51.137Z,15.4
2017-08-05T05:17:58.621Z,15.5
2017-08-05T05:19:07.902Z,15.5
2017-08-05T05:20:15.382Z,15.5
2017-08-05T05:21:22.205Z,15.6
2017-08-05T05:22:29.685Z,15.6
2017-08-05T05:23:36.836Z,15.6
2017-08-05T05:24:44.314Z,15.6
2017-08-05T05:25:51.793Z,15.6
2017-08-05T05:26:59.270Z,15.7
2017-08-05T05:28:06.745Z,15.7
2017-08-05T05:29:14.225Z,15.7
2017-08-05T05:30:22.001Z,15.7
2017-08-05T05:31:29.482Z,15.7
2017-08-05T05:32:36.955Z,15.8
2017-08-05T05:33:44.437Z,15.9
2017-08-05T05:34:51.912Z,16
2017-08-05T05:35:59.697Z,16.1
2017-08-05T05:37:07.172Z,16.1
2017-08-05T05:38:14.655Z,16.2
2017-08-05T05:39:22.141Z,16.2
2017-08-05T05:40:29.622Z,16.2
2017-08-05T05:41:37.104Z,16.2
2017-08-05T05:42:44.593Z,16.3
2017-08-05T05:43:52.070Z,16.3
2017-08-05T05:44:59.558Z,16.4
2017-08-05T05:46:07.055Z,16.4
2017-08-05T05:47:14.837Z,16.5
2017-08-05T05:48:22.348Z,16.5
2017-08-05T05:49:29.827Z,16.6
2017-08-05T05:50:37.303Z,16.6
2017-08-05T05:51:44.778Z,16.7
2017-08-05T05:52:52.285Z,16.7
2017-08-05T05:53:59.756Z,16.8
2017-08-05T05:55:06.585Z,16.9
2017-08-05T05:56:14.068Z,16.9
2017-08-05T05:57:21.224Z,16.9
2017-08-05T05:58:29.003Z,17
2017-08-05T05:59:36.485Z,17.1
2017-08-05T06:00:43.964Z,17.2
2017-08-05T06:01:51.445Z,17.3
2017-08-05T06:02:58.932Z,17.4
2017-08-05T06:04:06.705Z,17.4
2017-08-05T06:05:14.184Z,17.5
2017-08-05T06:06:21.337Z,17.5
2017-08-05T06:07:28.812Z,17.6
2017-08-05T06:08:36.292Z,17.7
2017-08-05T06:09:43.786Z,17.8
2017-08-05T06:10:51.273Z,18
2017-08-05T06:11:58.764Z,18.1
2017-08-05T06:13:06.243Z,18.2
2017-08-05T06:14:13.719Z,18.3
2017-08-05T06:15:21.505Z,18.4
2017-08-05T06:16:28.982Z,18.5
2017-08-05T06:17:36.462Z,18.5
2017-08-05T06:18:43.946Z,18.5
2017-08-05T06:19:51.426Z,18.6
2017-08-05T06:20:59.202Z,18.7
2017-08-05T06:22:06.683Z,18.9
2017-08-05T06:23:14.158Z,19
2017-08-05T06:24:21.632Z,19.1
2017-08-05T06:25:29.119Z,19.2
2017-08-05T06:26:36.531Z,19.3
2017-08-05T06:27:44.018Z,19.5
2017-08-05T06:28:51.497Z,19.7
2017-08-05T06:29:58.650Z,19.8
2017-08-05T06:31:06.124Z,19.9
2017-08-05T06:32:13.851Z,20
2017-08-05T06:33:21.330Z,20
2017-08-05T06:34:28.483Z,20
2017-08-05T06:35:35.637Z,20.1
2017-08-05T06:36:43.118Z,20
2017-08-05T06:37:50.906Z,20.2
2017-08-05T06:38:58.394Z,20.2
2017-08-05T06:40:05.935Z,20
2017-08-05T06:41:13.408Z,20.1
2017-08-05T06:42:20.882Z,20.1
2017-08-05T06:43:28.665Z,20.2
2017-08-05T06:44:36.141Z,20.2
2017-08-05T06:45:43.632Z,20.3
2017-08-05T06:46:50.784Z,20.4
2017-08-05T06:47:58.268Z,20.5
2017-08-05T06:49:06.046Z,20.6
2017-08-05T06:50:13.533Z,20.7
2017-08-05T06:51:21.017Z,20.8
2017-08-05T06:52:28.521Z,21
2017-08-05T06:53:36.000Z,21
2017-08-05T06:54:43.483Z,21.1
2017-08-05T06:55:50.962Z,21.1
2017-08-05T06:56:58.440Z,21.1
2017-08-05T06:58:06.222Z,20.9
2017-08-05T06:59:13.702Z,20.8
2017-08-05T07:00:21.186Z,20.7
2017-08-05T07:01:28.666Z,20.9
2017-08-05T07:02:36.144Z,20.9
2017-08-05T07:03:43.929Z,20.9
2017-08-05T07:04:51.086Z,20.8
2017-08-05T07:05:58.577Z,20.9
2017-08-05T07:07:06.073Z,21.1
2017-08-05T07:08:13.224Z,21.3
2017-08-05T07:09:21.008Z,21.3
2017-08-05T07:10:43.218Z,21.2
2017-08-05T07:11:50.699Z,21.1
2017-08-05T07:12:58.184Z,21.1
2017-08-05T07:14:05.348Z,20.8
2017-08-05T07:15:13.138Z,20.8
2017-08-05T07:16:20.615Z,20.8
2017-08-05T07:17:28.096Z,20.8
2017-08-05T07:18:35.579Z,20.8
2017-08-05T07:19:43.067Z,20.7
2017-08-05T07:20:50.856Z,20.7
2017-08-05T07:21:58.344Z,20.5
2017-08-05T07:23:05.824Z,20.6
2017-08-05T07:24:13.314Z,21
2017-08-05T07:25:20.127Z,21.4
2017-08-05T07:26:27.911Z,21.6
2017-08-05T07:27:35.395Z,21.8
2017-08-05T07:28:42.887Z,22
2017-08-05T07:29:50.378Z,22
2017-08-05T07:30:57.525Z,22.1
2017-08-05T07:32:04.934Z,21.9
2017-08-05T07:33:12.091Z,21.7
2017-08-05T07:34:19.572Z,21.6
2017-08-05T07:35:27.054Z,21.8
2017-08-05T07:36:34.549Z,22.1
2017-08-05T07:37:42.349Z,22.3
2017-08-05T07:38:49.819Z,22.4
2017-08-05T07:39:57.307Z,22.5
2017-08-05T07:41:04.493Z,22.6
2017-08-05T07:42:12.003Z,22.9
2017-08-05T07:43:19.781Z,22.9
2017-08-05T07:44:27.271Z,22.8
2017-08-05T07:45:34.769Z,22.8
2017-08-05T07:46:42.249Z,22.9
2017-08-05T07:47:49.748Z,23.1
2017-08-05T07:48:57.536Z,23.1
2017-08-05T07:50:05.016Z,23.1
2017-08-05T07:51:12.509Z,23.2
2017-08-05T07:52:19.674Z,23.3
2017-08-05T07:53:27.157Z,23.4
2017-08-05T07:54:34.614Z,23.7
2017-08-05T07:55:42.099Z,23.9
2017-08-05T07:56:49.254Z,23.9
2017-08-05T07:57:56.408Z,23.8
2017-08-05T07:59:03.887Z,23.6
2017-08-05T08:00:11.375Z,23.5
2017-08-05T08:01:18.864Z,23.5
2017-08-05T08:02:26.348Z,23.5
2017-08-05T08:03:33.835Z,23.5
2017-08-05T08:04:41.620Z,23.6
2017-08-05T08:05:50.870Z,23.7
2017-08-05T08:06:58.371Z,23.8
2017-08-05T08:08:05.852Z,23.8
2017-08-05T08:09:13.341Z,23.7
2017-08-05T08:10:21.120Z,23.6
2017-08-05T08:11:28.603Z,23.7
2017-08-05T08:12:36.085Z,23.8
2017-08-05T08:13:43.573Z,23.9
2017-08-05T08:14:51.082Z,23.8
2017-08-05T08:15:58.532Z,23.8
2017-08-05T08:17:05.678Z,23.8
2017-08-05T08:18:13.176Z,23.9
2017-08-05T08:19:20.662Z,24
2017-08-05T08:20:28.144Z,24.1
2017-08-05T08:21:35.548Z,24
2017-08-05T08:22:42.715Z,24.1
2017-08-05T08:23:50.203Z,23.9
2017-08-05T08:24:57.692Z,23.9
2017-08-05T08:26:05.179Z,23.8
2017-08-05T08:27:13.017Z,23.6
2017-08-05T08:28:20.508Z,23.5
2017-08-05T08:29:27.997Z,23.5
2017-08-05T08:30:34.828Z,23.4
2017-08-05T08:31:42.316Z,23.4
2017-08-05T08:32:50.098Z,23.6
2017-08-05T08:33:57.580Z,23.8
2017-08-05T08:35:05.076Z,23.9
2017-08-05T08:36:12.568Z,23.8
2017-08-05T08:37:20.216Z,23.8
2017-08-05T08:38:28.055Z,23.7
2017-08-05T08:39:35.543Z,23.8
2017-08-05T08:40:43.051Z,23.8
2017-08-05T08:41:50.532Z,23.8
2017-08-05T08:42:58.043Z,23.8
2017-08-05T08:44:05.834Z,23.8
2017-08-05T08:45:13.320Z,23.9
2017-08-05T08:46:20.820Z,24.2
2017-08-05T08:47:27.971Z,24.3
2017-08-05T08:48:35.458Z,24.3
2017-08-05T08:49:42.873Z,24.3
2017-08-05T08:50:50.368Z,24
2017-08-05T08:51:57.529Z,23.9
2017-08-05T08:53:05.019Z,24
2017-08-05T08:54:12.513Z,24.1
2017-08-05T08:55:20.292Z,24
2017-08-05T08:56:27.787Z,23.9
2017-08-05T08:57:35.287Z,23.8
2017-08-05T08:58:43.018Z,23.7
2017-08-05T08:59:50.747Z,23.6
2017-08-05T09:00:58.490Z,23.5
2017-08-05T09:02:05.973Z,23.5
2017-08-05T09:03:13.468Z,23.5
2017-08-05T09:04:20.947Z,23.5
2017-08-05T09:05:28.106Z,23.6
2017-08-05T09:06:35.844Z,23.7
2017-08-05T09:07:43.342Z,23.8
2017-08-05T09:08:50.506Z,23.8
2017-08-05T09:09:57.668Z,24
2017-08-05T09:11:04.819Z,24.1
2017-08-05T09:12:12.561Z,24.4
2017-08-05T09:13:20.043Z,24.6
2017-08-05T09:14:27.525Z,24.8
2017-08-05T09:15:34.717Z,24.6
2017-08-05T09:16:42.211Z,24.5
2017-08-05T09:17:49.992Z,24.6
2017-08-05T09:18:57.484Z,24.8
2017-08-05T09:20:04.970Z,25.1
2017-08-05T09:21:12.459Z,25.4
2017-08-05T09:22:19.945Z,25.4
2017-08-05T09:23:27.684Z,25.3
2017-08-05T09:24:35.170Z,25.2
2017-08-05T09:25:42.660Z,25.2
2017-08-05T09:26:50.150Z,25.3
2017-08-05T09:27:57.646Z,25.4
2017-08-05T09:29:05.115Z,25.6
2017-08-05T09:30:12.601Z,25.7
2017-08-05T09:31:20.088Z,25.6
2017-08-05T09:32:27.574Z,25.5
2017-08-05T09:33:35.067Z,25.2
2017-08-05T09:34:42.859Z,25.3
2017-08-05T09:35:50.345Z,25.3
2017-08-05T09:36:57.832Z,25.4
2017-08-05T09:38:05.339Z,25.4
2017-08-05T09:39:12.838Z,25.2
2017-08-05T09:40:20.622Z,25.1
2017-08-05T09:41:28.108Z,24.8
2017-08-05T09:42:35.595Z,24.8
2017-08-05T09:43:43.081Z,24.9
2017-08-05T09:44:50.586Z,24.9
2017-08-05T09:45:58.378Z,25.1
2017-08-05T09:47:05.866Z,25.1
2017-08-05T09:48:13.354Z,25.2
2017-08-05T09:49:20.860Z,25.2
2017-08-05T09:50:28.350Z,25.4
2017-08-05T09:51:36.133Z,25.4
2017-08-05T09:52:43.625Z,25.6
2017-08-05T09:53:51.110Z,25.7
2017-08-05T09:54:58.594Z,25.8
2017-08-05T09:56:06.076Z,25.7
2017-08-05T09:57:13.825Z,25.7
2017-08-05T09:58:21.337Z,25.5
2017-08-05T09:59:28.833Z,25.5
2017-08-05T10:00:36.314Z,25.5
2017-08-05T10:01:43.142Z,25.3
2017-08-05T10:02:50.633Z,25.1
2017-08-05T10:03:58.415Z,25
2017-08-05T10:05:05.594Z,24.8
2017-08-05T10:06:12.750Z,24.7
2017-08-05T10:07:19.908Z,24.5
2017-08-05T10:08:27.399Z,24.6
2017-08-05T10:09:34.857Z,24.6
2017-08-05T10:10:42.341Z,24.6
2017-08-05T10:11:49.164Z,24.6
2017-08-05T10:12:56.653Z,24.6
2017-08-05T10:14:04.142Z,24.6
2017-08-05T10:15:11.932Z,24.6
2017-08-05T10:16:19.435Z,24.7
2017-08-05T10:17:26.933Z,24.8
2017-08-05T10:18:34.425Z,25
2017-08-05T10:19:41.593Z,24.9
2017-08-05T10:20:49.382Z,25
2017-08-05T10:21:56.873Z,25.1
2017-08-05T10:23:04.361Z,25.3
2017-08-05T10:24:11.847Z,25.4
2017-08-05T10:25:19.337Z,25.6
2017-08-05T10:26:27.124Z,25.6
2017-08-05T10:27:34.616Z,25.7
2017-08-05T10:28:42.106Z,25.7
2017-08-05T10:29:49.593Z,25.8
2017-08-05T10:30:57.087Z,26
2017-08-05T10:32:04.873Z,26
2017-08-05T10:33:12.363Z,26.3
2017-08-05T10:34:20.043Z,26.5
2017-08-05T10:35:42.139Z,27
2017-08-05T10:36:49.625Z,27.1
2017-08-05T10:37:57.033Z,27.6
2017-08-05T10:39:04.517Z,27.9
2017-08-05T10:40:11.679Z,28
2017-08-05T10:41:19.157Z,27.7
2017-08-05T10:42:26.320Z,27.1
2017-08-05T10:43:34.061Z,27
2017-08-05T10:44:41.549Z,27.1
2017-08-05T10:45:49.059Z,26.9
2017-08-05T10:46:56.550Z,26.9
2017-08-05T10:48:04.073Z,26.7
2017-08-05T10:49:12.038Z,26.7
2017-08-05T10:50:19.545Z,26.6
2017-08-05T10:51:27.049Z,26.5
2017-08-05T10:52:34.545Z,26.6
2017-08-05T10:53:42.030Z,26.6
2017-08-05T10:54:49.444Z,26.6
2017-08-05T10:55:56.947Z,26.6
2017-08-05T10:57:04.111Z,26.6
2017-08-05T10:58:11.263Z,26.8
2017-08-05T10:59:18.096Z,27.1
2017-08-05T11:00:25.829Z,27.4
2017-08-05T11:01:33.312Z,27.6
2017-08-05T11:02:40.799Z,27.8
2017-08-05T11:03:47.963Z,27.8
2017-08-05T11:04:55.454Z,27.8
2017-08-05T11:06:02.865Z,28.1
2017-08-05T11:07:10.358Z,28.3
2017-08-05T11:08:17.849Z,28.5
2017-08-05T11:09:25.371Z,28.7
2017-08-05T11:10:32.523Z,28.7
2017-08-05T11:11:40.264Z,28.6
2017-08-05T11:12:47.758Z,28.1
2017-08-05T11:13:55.240Z,28.1
2017-08-05T11:15:02.398Z,28.6
2017-08-05T11:16:09.886Z,29.1
2017-08-05T11:17:17.676Z,29.5
2017-08-05T11:18:25.164Z,29.3
2017-08-05T11:19:32.653Z,29.1
2017-08-05T11:20:39.811Z,28.9
2017-08-05T11:21:47.310Z,28.7
2017-08-05T11:22:55.098Z,28.2
2017-08-05T11:24:02.609Z,28.2
2017-08-05T11:25:10.088Z,28.2
2017-08-05T11:26:17.577Z,28.6
2017-08-05T11:27:24.737Z,28.5
2017-08-05T11:28:32.477Z,28.2
2017-08-05T11:29:40.160Z,28.2
2017-08-05T11:30:47.684Z,28.4
2017-08-05T11:31:55.184Z,28.9
2017-08-05T11:33:02.677Z,29.2
2017-08-05T11:34:10.434Z,29.1
2017-08-05T11:35:17.924Z,29.2
2017-08-05T11:36:25.410Z,28.9
2017-08-05T11:37:32.900Z,28.7
2017-08-05T11:38:40.381Z,28.6
2017-08-05T11:39:47.845Z,28.7
2017-08-05T11:40:55.336Z,28.9
2017-08-05T11:42:02.498Z,28.8
2017-08-05T11:43:09.991Z,28.7
2017-08-05T11:44:17.476Z,28.7
2017-08-05T11:45:25.259Z,28.3
2017-08-05T11:46:32.748Z,28.3
2017-08-05T11:47:40.242Z,28.3
2017-08-05T11:49:02.310Z,28.6
2017-08-05T11:50:09.803Z,28.9
2017-08-05T11:51:17.539Z,29.2
2017-08-05T11:52:25.036Z,29.4
2017-08-05T11:53:32.526Z,29.5
2017-08-05T11:54:39.691Z,29.3
2017-08-05T11:55:46.856Z,29.2
2017-08-05T11:56:54.346Z,28.8
2017-08-05T11:58:01.839Z,28.6
2017-08-05T11:59:09.349Z,28.7
2017-08-05T12:00:16.890Z,28.7
2017-08-05T12:01:24.629Z,28.6
2017-08-05T12:02:32.116Z,28.8
2017-08-05T12:03:39.624Z,29
2017-08-05T12:04:47.129Z,28.8
2017-08-05T12:05:54.613Z,28.7
2017-08-05T12:07:02.131Z,28.8
2017-08-05T12:08:09.623Z,28.7
2017-08-05T12:09:17.120Z,28.6
2017-08-05T12:10:24.615Z,28.7
2017-08-05T12:11:32.098Z,28.7
2017-08-05T12:12:39.841Z,28.8
2017-08-05T12:13:46.998Z,29.1
2017-08-05T12:14:54.491Z,29.3
2017-08-05T12:16:01.995Z,29.3
2017-08-05T12:17:09.488Z,28.9
2017-08-05T12:18:17.282Z,28.7
2017-08-05T12:19:25.009Z,28.6
2017-08-05T12:20:32.495Z,28.7
2017-08-05T12:21:39.980Z,28.5
2017-08-05T12:22:47.137Z,28.3
2017-08-05T12:23:54.992Z,28.3
2017-08-05T12:25:02.493Z,28.1
2017-08-05T12:26:09.985Z,28.1
2017-08-05T12:27:17.472Z,28.2
2017-08-05T12:28:24.964Z,27.9
2017-08-05T12:29:32.752Z,27.9
2017-08-05T12:30:39.916Z,28.3
2017-08-05T12:31:47.413Z,28.1
2017-08-05T12:32:54.900Z,28.2
2017-08-05T12:34:02.057Z,28.1
2017-08-05T12:35:09.219Z,28.1
2017-08-05T12:36:17.007Z,28.1
2017-08-05T12:37:24.495Z,28
2017-08-05T12:38:31.986Z,27.9
2017-08-05T12:39:39.476Z,28
2017-08-05T12:40:46.969Z,28
2017-08-05T12:41:54.769Z,28
2017-08-05T12:43:02.269Z,28
2017-08-05T12:44:09.435Z,28
2017-08-05T12:45:16.928Z,27.8
2017-08-05T12:46:24.420Z,27.7
2017-08-05T12:47:32.211Z,27.7
2017-08-05T12:48:39.364Z,27.7
2017-08-05T12:49:46.869Z,27.5
2017-08-05T12:50:54.030Z,27.5
2017-08-05T12:52:01.528Z,27.5
2017-08-05T12:53:09.015Z,27.4
2017-08-05T12:54:16.507Z,27.6
2017-08-05T12:55:24.009Z,27.5
2017-08-05T12:56:31.750Z,27.6
2017-08-05T12:57:39.266Z,27.5
2017-08-05T12:58:46.776Z,27.4
2017-08-05T12:59:54.260Z,27.4
2017-08-05T13:01:01.750Z,27.3
2017-08-05T13:02:09.487Z,27.3
2017-08-05T13:03:16.969Z,27.4
2017-08-05T13:04:24.464Z,27.4
2017-08-05T13:05:31.951Z,27.2
2017-08-05T13:06:39.447Z,27.1
2017-08-05T13:07:47.241Z,27
2017-08-05T13:08:54.727Z,27
2017-08-05T13:10:02.148Z,26.9
2017-08-05T13:11:10.579Z,26.9
2017-08-05T13:12:18.067Z,26.9
2017-08-05T13:13:25.863Z,26.9
2017-08-05T13:14:33.028Z,26.6
2017-08-05T13:15:40.190Z,26.5
2017-08-05T13:16:47.677Z,26.5
2017-08-05T13:17:55.160Z,26.6
2017-08-05T13:19:02.950Z,26.7
2017-08-05T13:20:10.096Z,26.6
2017-08-05T13:21:17.582Z,26.5
2017-08-05T13:22:25.075Z,26.2
2017-08-05T13:23:31.901Z,25.9
2017-08-05T13:24:39.697Z,25.8
2017-08-05T13:25:47.190Z,25.8
2017-08-05T13:26:54.684Z,25.7
2017-08-05T13:28:02.164Z,25.5
2017-08-05T13:29:09.327Z,25.4
2017-08-05T13:30:17.109Z,25.2
2017-08-05T13:31:24.597Z,25.2
2017-08-05T13:32:32.088Z,25
2017-08-05T13:33:39.580Z,24.8
2017-08-05T13:34:46.736Z,24.8
2017-08-05T13:35:54.477Z,24.9
2017-08-05T13:37:02.000Z,24.8
2017-08-05T13:38:09.502Z,24.9
2017-08-05T13:39:16.994Z,24.7
2017-08-05T13:40:24.483Z,24.6
2017-08-05T13:41:32.277Z,24.5
2017-08-05T13:42:39.767Z,24.4
2017-08-05T13:43:47.257Z,24.3
2017-08-05T13:44:54.747Z,24.3
2017-08-05T13:46:02.238Z,24.3
2017-08-05T13:47:10.026Z,24.5
2017-08-05T13:48:17.510Z,24.5
2017-08-05T13:49:24.670Z,24.3
2017-08-05T13:50:32.155Z,24.2
2017-08-05T13:51:39.647Z,24.2
2017-08-05T13:52:47.142Z,24.2
2017-08-05T13:53:54.634Z,24.3
2017-08-05T13:55:02.422Z,24.3
2017-08-05T13:56:09.904Z,24.4
2017-08-05T13:57:17.059Z,24.4
2017-08-05T13:58:24.554Z,24.4
2017-08-05T13:59:32.045Z,24.4
2017-08-05T14:00:39.830Z,24.5
2017-08-05T14:01:47.331Z,24.5
2017-08-05T14:02:54.821Z,24.6
2017-08-05T14:04:02.321Z,24.7
2017-08-05T14:05:10.040Z,24.7
2017-08-05T14:06:17.835Z,24.6
2017-08-05T14:07:25.316Z,24.5
2017-08-05T14:08:32.802Z,24.6
2017-08-05T14:09:40.294Z,24.6
2017-08-05T14:10:47.785Z,24.7
2017-08-05T14:11:55.565Z,24.9
2017-08-05T14:13:02.727Z,25.2
2017-08-05T14:14:10.379Z,25.5
2017-08-05T14:15:17.867Z,25.6
2017-08-05T14:16:25.353Z,25.9
2017-08-05T14:17:33.094Z,26
2017-08-05T14:18:40.584Z,26
2017-08-05T14:19:47.761Z,26.4
2017-08-05T14:20:55.244Z,26.9
2017-08-05T14:22:02.730Z,27.3
2017-08-05T14:23:10.467Z,27.2
2017-08-05T14:24:17.951Z,26.8
2017-08-05T14:25:25.436Z,26.7
2017-08-05T14:26:32.920Z,26.6
2017-08-05T14:27:40.593Z,26.7
2017-08-05T14:28:48.055Z,26.6
2017-08-05T14:29:55.543Z,26.6
2017-08-05T14:31:03.033Z,26.6
2017-08-05T14:32:10.522Z,26.4
2017-08-05T14:33:18.005Z,26.5
2017-08-05T14:34:25.792Z,26.5
2017-08-05T14:35:33.285Z,26.3
2017-08-05T14:36:40.766Z,26.1
2017-08-05T14:37:48.250Z,26.2
2017-08-05T14:38:55.740Z,26.2
2017-08-05T14:40:03.532Z,26.3
2017-08-05T14:41:11.023Z,26.5
2017-08-05T14:42:18.511Z,26.5
2017-08-05T14:43:26.003Z,26
2017-08-05T14:44:33.505Z,25.8
2017-08-05T14:45:41.293Z,25.7
2017-08-05T14:46:48.787Z,25.6
2017-08-05T14:47:56.272Z,25.7
2017-08-05T14:49:03.431Z,25.8
2017-08-05T14:50:10.918Z,25.8
2017-08-05T14:51:18.707Z,26
2017-08-05T14:52:25.859Z,26.3
2017-08-05T14:53:33.357Z,26.7
2017-08-05T14:54:40.839Z,26.9
2017-08-05T14:55:48.326Z,26.9
2017-08-05T14:56:56.123Z,26.9
2017-08-05T14:58:03.616Z,27
2017-08-05T14:59:11.106Z,27
2017-08-05T15:00:18.599Z,26.9
2017-08-05T15:01:26.090Z,26.5
2017-08-05T15:02:33.873Z,26.2
2017-08-05T15:03:41.354Z,26.3